Poptun, Guatemala
Current Conditions -  °F | °C
As of 5:00 AM on Saturday 25 Oct 2014 (Local Time) from MGMM Reporting Station
Broken Clouds Broken Clouds  
Wind Chill: 73°   Ceiling: 1200
Heat Index: 73°   Visibility: 6mi
Dew Point: 73°   Wind: 7mph
Humidity: 100%   Direction: 290°WNW
Pressure: 30"   Gusts: NA
Location:  16.33°N, 89.42°W
Report Text: MGMM 251100Z 29006KT 9999 BKN012 23/23 Q1016 A3000
Loading
Personal Weather Stations






























Interactive Weather Map
Tropical Storm Tracking
New forecast layout! Learn more

10-Day Weather Forecast

Advertisements
Track Severe Weather on mobile